createdAt,value
2023-02-11T00:00:43.762Z,95.02
2023-02-11T00:06:01.820Z,94.92
2023-02-11T00:11:04.941Z,94.77
2023-02-11T00:16:09.679Z,94.52
2023-02-11T00:21:18.349Z,94.39
2023-02-11T00:26:24.688Z,94.24
2023-02-11T00:31:28.165Z,94.10
2023-02-11T00:36:31.485Z,94.09
2023-02-11T00:41:34.680Z,94.04
2023-02-11T00:46:37.395Z,94.02
2023-02-11T00:51:40.206Z,93.80
2023-02-11T00:56:42.829Z,93.62
2023-02-11T01:01:45.490Z,93.60
2023-02-11T01:06:48.145Z,93.45
2023-02-11T01:11:50.993Z,93.44
2023-02-11T01:16:53.612Z,93.47
2023-02-11T01:21:56.205Z,93.29
2023-02-11T01:26:58.954Z,93.32
2023-02-11T01:32:01.674Z,93.37
2023-02-11T01:37:04.413Z,93.20
2023-02-11T01:42:07.039Z,93.05
2023-02-11T01:47:09.828Z,93.13
2023-02-11T01:52:22.092Z,93.08
2023-02-11T01:57:28.896Z,93.00
2023-02-11T02:02:39.618Z,92.87
2023-02-11T02:07:49.667Z,92.70
2023-02-11T02:12:52.428Z,92.61
2023-02-11T02:18:04.294Z,92.57
2023-02-11T02:23:43.303Z,92.46
2023-02-11T02:29:01.752Z,92.30
2023-02-11T02:34:14.043Z,92.25
2023-02-11T02:39:26.206Z,92.10
2023-02-11T02:44:29.760Z,92.11
2023-02-11T02:49:32.338Z,92.09
2023-02-11T02:54:53.563Z,91.97
2023-02-11T03:00:11.403Z,91.78
2023-02-11T03:05:19.622Z,91.65
2023-02-11T03:10:27.300Z,91.56
2023-02-11T03:15:34.860Z,91.46
2023-02-11T03:20:41.512Z,91.28
2023-02-11T03:26:23.154Z,91.20
2023-02-11T03:31:47.733Z,90.96
2023-02-11T03:37:01.386Z,90.97
2023-02-11T03:42:07.413Z,90.76
2023-02-11T03:47:12.610Z,90.57
2023-02-11T03:52:18.034Z,90.55
2023-02-11T03:57:20.664Z,90.34
2023-02-11T04:02:32.494Z,90.32
2023-02-11T04:07:35.328Z,90.34
2023-02-11T04:12:37.939Z,90.17
2023-02-11T04:17:41.648Z,90.18
2023-02-11T04:22:44.256Z,90.06
2023-02-11T04:27:46.915Z,90.11
2023-02-11T04:32:49.550Z,90.11
2023-02-11T04:37:52.816Z,90.21
2023-02-11T04:42:55.346Z,90.22
2023-02-11T04:47:57.921Z,90.51
2023-02-11T04:53:00.470Z,90.84
2023-02-11T04:58:03.055Z,91.01
2023-02-11T05:03:08.089Z,91.09
2023-02-11T05:08:11.777Z,91.52
2023-02-11T05:13:14.530Z,92.71
2023-02-11T05:18:17.132Z,93.66
2023-02-11T05:23:19.678Z,94.22
2023-02-11T05:28:22.308Z,95.09
2023-02-11T05:33:25.636Z,95.10
2023-02-11T05:38:28.557Z,95.45
2023-02-11T05:43:31.688Z,95.88
2023-02-11T05:48:34.835Z,96.26
2023-02-11T05:53:37.408Z,96.58
2023-02-11T05:58:40.699Z,96.84
2023-02-11T06:03:43.258Z,97.15
2023-02-11T06:08:45.857Z,97.32
2023-02-11T06:13:48.492Z,97.28
2023-02-11T06:18:51.138Z,97.62
2023-02-11T06:23:53.725Z,98.02
2023-02-11T06:28:56.518Z,98.19
2023-02-11T06:33:59.278Z,98.42
2023-02-11T06:39:02.967Z,98.53
2023-02-11T06:44:06.102Z,98.48
2023-02-11T06:49:08.816Z,98.63
2023-02-11T06:54:13.820Z,99.43
2023-02-11T06:59:18.102Z,99.54
2023-02-11T07:04:20.750Z,99.38
2023-02-11T07:09:23.607Z,99.35
2023-02-11T07:14:26.251Z,99.52
2023-02-11T07:19:28.915Z,99.64
2023-02-11T07:24:32.009Z,99.68
2023-02-11T07:29:34.997Z,99.69
2023-02-11T07:34:37.926Z,99.62
2023-02-11T07:39:40.671Z,99.88
2023-02-11T07:44:47.985Z,99.99
2023-02-11T07:49:53.961Z,100.00
2023-02-11T07:54:59.565Z,100.00
2023-02-11T08:00:03.529Z,100.00
2023-02-11T08:05:06.723Z,100.00
2023-02-11T08:10:09.461Z,100.00
2023-02-11T08:15:12.482Z,100.00
2023-02-11T08:20:17.183Z,100.00
2023-02-11T08:25:22.952Z,100.00
2023-02-11T08:30:27.656Z,100.00
2023-02-11T08:35:31.060Z,100.00
2023-02-11T08:40:35.696Z,100.00
2023-02-11T08:45:38.333Z,100.00
2023-02-11T08:50:40.943Z,100.00
2023-02-11T08:55:51.930Z,100.00
2023-02-11T09:00:54.883Z,100.00
2023-02-11T09:05:58.652Z,100.00
2023-02-11T09:11:01.961Z,100.00
2023-02-11T09:16:05.639Z,100.00
2023-02-11T09:21:09.580Z,100.00
2023-02-11T09:26:44.534Z,100.00
2023-02-11T09:31:47.318Z,100.00
2023-02-11T09:36:49.992Z,100.00
2023-02-11T09:41:59.404Z,100.00
2023-02-11T09:47:30.958Z,100.00
2023-02-11T09:52:38.510Z,100.00
2023-02-11T09:57:41.096Z,100.00
2023-02-11T10:03:00.694Z,100.00
2023-02-11T10:08:17.046Z,100.00
2023-02-11T10:13:42.562Z,100.00
2023-02-11T10:19:05.225Z,100.00
2023-02-11T10:24:14.092Z,100.00
2023-02-11T10:29:37.928Z,100.00
2023-02-11T10:34:42.278Z,100.00
2023-02-11T10:39:44.963Z,100.00
2023-02-11T10:45:02.613Z,100.00
2023-02-11T10:50:26.206Z,100.00
2023-02-11T10:55:30.162Z,100.00
2023-02-11T11:00:40.379Z,100.00
2023-02-11T11:05:52.367Z,100.00
2023-02-11T11:11:08.169Z,100.00
2023-02-11T11:16:13.970Z,100.00
2023-02-11T11:21:19.424Z,100.00
2023-02-11T11:26:49.680Z,100.00
2023-02-11T11:32:00.773Z,100.00
2023-02-11T11:37:10.904Z,100.00
2023-02-11T11:42:31.770Z,100.00
2023-02-11T11:47:56.150Z,100.00
2023-02-11T11:53:28.562Z,100.00
2023-02-11T11:58:34.092Z,100.00
2023-02-11T12:03:48.864Z,100.00
2023-02-11T12:09:12.314Z,100.00
2023-02-11T12:14:36.112Z,100.00
2023-02-11T12:19:41.380Z,100.00
2023-02-11T12:25:18.746Z,100.00
2023-02-11T12:30:37.897Z,100.00
2023-02-11T12:36:12.562Z,100.00
2023-02-11T12:41:48.086Z,100.00
2023-02-11T12:47:11.009Z,100.00
2023-02-11T12:52:20.028Z,100.00
2023-02-11T12:57:26.541Z,100.00
2023-02-11T13:02:56.961Z,100.00
2023-02-11T13:08:15.931Z,100.00
2023-02-11T13:13:25.659Z,100.00
2023-02-11T13:18:51.318Z,100.00
2023-02-11T13:24:09.801Z,100.00
2023-02-11T13:29:15.149Z,100.00
2023-02-11T13:34:43.292Z,100.00
2023-02-11T13:40:01.940Z,100.00
2023-02-11T13:45:20.999Z,100.00
2023-02-11T13:50:26.092Z,100.00
2023-02-11T13:55:30.127Z,100.00
2023-02-11T14:00:36.152Z,100.00
2023-02-11T14:06:31.340Z,100.00
2023-02-11T14:11:34.457Z,100.00
2023-02-11T14:17:09.895Z,100.00
2023-02-11T14:22:17.235Z,100.00
2023-02-11T14:27:42.182Z,100.00
2023-02-11T14:33:16.684Z,100.00
2023-02-11T14:38:35.747Z,100.00
2023-02-11T14:43:46.898Z,100.00
2023-02-11T14:48:53.857Z,100.00
2023-02-11T14:54:02.749Z,100.00
2023-02-11T14:59:17.542Z,100.00
2023-02-11T15:04:24.580Z,100.00
2023-02-11T15:09:37.293Z,100.00
2023-02-11T15:14:45.604Z,100.00
2023-02-11T15:19:55.081Z,100.00
2023-02-11T15:25:00.959Z,100.00
2023-02-11T15:30:24.761Z,100.00
2023-02-11T15:35:35.130Z,100.00
2023-02-11T15:40:37.859Z,100.00
2023-02-11T15:46:01.733Z,100.00
2023-02-11T15:51:25.292Z,100.00
2023-02-11T15:56:45.493Z,100.00
2023-02-11T16:01:49.067Z,100.00
2023-02-11T16:06:53.091Z,100.00
2023-02-11T16:11:58.876Z,100.00
2023-02-11T16:17:06.619Z,100.00
2023-02-11T16:22:15.332Z,100.00
2023-02-11T16:27:25.411Z,100.00
2023-02-11T16:32:29.711Z,100.00
2023-02-11T16:37:32.461Z,100.00
2023-02-11T16:42:35.177Z,100.00
2023-02-11T16:47:40.897Z,100.00
2023-02-11T16:52:43.573Z,100.00
2023-02-11T16:57:46.306Z,100.00
2023-02-11T17:02:49.060Z,100.00
2023-02-11T17:07:52.418Z,100.00
2023-02-11T17:12:55.297Z,100.00
2023-02-11T17:17:58.547Z,100.00
2023-02-11T17:23:01.131Z,100.00
2023-02-11T17:28:05.390Z,100.00
2023-02-11T17:33:09.497Z,100.00
2023-02-11T17:38:12.535Z,100.00
2023-02-11T17:43:15.799Z,100.00
2023-02-11T17:48:18.424Z,100.00
2023-02-11T17:53:21.070Z,100.00
2023-02-11T17:58:23.840Z,100.00
2023-02-11T18:03:26.507Z,100.00
2023-02-11T18:08:30.058Z,100.00
2023-02-11T18:13:33.062Z,100.00
2023-02-11T18:18:35.819Z,100.00
2023-02-11T18:23:38.532Z,99.11
2023-02-11T18:28:45.271Z,97.69
2023-02-11T18:33:48.949Z,97.15
2023-02-11T18:38:53.660Z,95.36
2023-02-11T18:43:59.595Z,94.55
2023-02-11T18:49:02.325Z,93.52
2023-02-11T18:54:05.069Z,94.55
2023-02-11T18:59:13.933Z,95.81
2023-02-11T19:04:19.911Z,96.45
2023-02-11T19:09:22.949Z,96.13
2023-02-11T19:14:31.415Z,95.63
2023-02-11T19:19:36.403Z,94.83
2023-02-11T19:24:40.147Z,94.18
2023-02-11T19:29:43.045Z,93.96
2023-02-11T19:34:46.831Z,93.85
2023-02-11T19:39:49.488Z,93.82
2023-02-11T19:44:52.060Z,94.22
2023-02-11T19:49:55.691Z,93.79
2023-02-11T19:54:59.376Z,93.51
2023-02-11T20:00:02.104Z,94.17
2023-02-11T20:05:05.081Z,94.38
2023-02-11T20:10:08.540Z,94.31
2023-02-11T20:15:11.339Z,94.86
2023-02-11T20:20:14.017Z,95.44
2023-02-11T20:25:16.684Z,96.05
2023-02-11T20:30:19.415Z,95.95
2023-02-11T20:35:22.431Z,95.91
2023-02-11T20:40:27.445Z,95.30
2023-02-11T20:45:30.181Z,94.94
2023-02-11T20:50:34.574Z,94.72
2023-02-11T20:55:38.681Z,94.72
2023-02-11T21:00:41.393Z,94.67
2023-02-11T21:05:44.035Z,94.80
2023-02-11T21:10:48.866Z,94.81
2023-02-11T21:15:55.816Z,94.80
2023-02-11T21:20:59.631Z,94.33
2023-02-11T21:26:02.459Z,94.04
2023-02-11T21:31:06.013Z,93.97
2023-02-11T21:36:10.508Z,94.69
2023-02-11T21:41:13.116Z,95.05
2023-02-11T21:46:16.989Z,95.35
2023-02-11T21:51:23.892Z,95.15
2023-02-11T21:56:28.182Z,95.10
2023-02-11T22:01:35.058Z,95.09
2023-02-11T22:06:37.858Z,95.32
2023-02-11T22:11:40.768Z,95.28
2023-02-11T22:16:47.600Z,95.13
2023-02-11T22:21:50.242Z,94.91
2023-02-11T22:26:53.622Z,95.26
2023-02-11T22:31:56.260Z,95.73
2023-02-11T22:37:00.061Z,95.89
2023-02-11T22:42:02.789Z,95.55
2023-02-11T22:47:05.504Z,95.41
2023-02-11T22:52:08.237Z,95.53
2023-02-11T22:57:10.809Z,94.77
2023-02-11T23:02:13.555Z,94.10
2023-02-11T23:07:16.373Z,92.83
2023-02-11T23:12:19.045Z,92.24
2023-02-11T23:17:24.310Z,91.48
2023-02-11T23:22:26.969Z,90.96
2023-02-11T23:27:29.820Z,90.95
2023-02-11T23:32:32.672Z,90.71
2023-02-11T23:37:35.599Z,90.62
2023-02-11T23:42:38.600Z,89.92
2023-02-11T23:47:42.325Z,89.56
2023-02-11T23:52:45.066Z,89.37
2023-02-11T23:57:47.758Z,88.99
